TUI7AT EDDF-EDDS
Flight info
| Callsign | TUI7AT |
|---|---|
| Flight time | 0h 27m |
| Altitude | 17000 |
| Route | ANEKI2L/18 ANEKI Y163 NEKLO Y171 INKAM N850 KRH T128 BADSO BADSO2A |
| Aircraft | B738/M-SDE2E3FGHIRWXY/LB1 |
Departure
| Time | 2026-05-01 15:05 |
|---|---|
| Airport | Frankfurt Main Airport (EDDF) |
Arrival
| Time | 2026-05-01 15:33 |
|---|---|
| Airport | Stuttgart Airport (EDDS) |
| Time | Latitude | Longitude | Altitude | Speed | Heading |
|---|---|---|---|---|---|
| 2026-05-01 14:13 | 50.04909 | 8.58867 | 361 ft | 0 kts | 160° |
| 2026-05-01 14:49 | 50.04933 | 8.58853 | 363 ft | 4 kts | 161° |
| 2026-05-01 14:50 | 50.04968 | 8.58842 | 361 ft | 4 kts | 186° |
| 2026-05-01 14:50 | 50.04999 | 8.58875 | 360 ft | 0 kts | 250° |
| 2026-05-01 14:54 | 50.04995 | 8.58856 | 358 ft | 5 kts | 249° |
| 2026-05-01 14:54 | 50.04973 | 8.58768 | 365 ft | 12 kts | 249° |
| 2026-05-01 14:55 | 50.04919 | 8.58673 | 359 ft | 13 kts | 182° |
| 2026-05-01 14:55 | 50.04834 | 8.58715 | 366 ft | 13 kts | 161° |
| 2026-05-01 14:55 | 50.04753 | 8.58760 | 368 ft | 12 kts | 171° |
| 2026-05-01 14:55 | 50.04700 | 8.58673 | 371 ft | 12 kts | 249° |
| 2026-05-01 14:56 | 50.04667 | 8.58538 | 370 ft | 16 kts | 250° |
| 2026-05-01 14:56 | 50.04623 | 8.58357 | 370 ft | 19 kts | 250° |
| 2026-05-01 14:56 | 50.04578 | 8.58168 | 365 ft | 20 kts | 250° |
| 2026-05-01 14:56 | 50.04531 | 8.57968 | 368 ft | 19 kts | 250° |
| 2026-05-01 14:57 | 50.04485 | 8.57775 | 367 ft | 19 kts | 249° |
| 2026-05-01 14:57 | 50.04380 | 8.57335 | 362 ft | 23 kts | 250° |
| 2026-05-01 14:57 | 50.04325 | 8.57110 | 366 ft | 22 kts | 250° |
| 2026-05-01 14:58 | 50.04273 | 8.56891 | 360 ft | 21 kts | 249° |
| 2026-05-01 14:58 | 50.04223 | 8.56680 | 362 ft | 21 kts | 249° |
| 2026-05-01 14:58 | 50.04173 | 8.56471 | 356 ft | 20 kts | 249° |
| 2026-05-01 14:58 | 50.04126 | 8.56271 | 351 ft | 19 kts | 250° |
| 2026-05-01 14:59 | 50.04079 | 8.56077 | 358 ft | 19 kts | 250° |
| 2026-05-01 14:59 | 50.04034 | 8.55890 | 349 ft | 18 kts | 249° |
| 2026-05-01 14:59 | 50.03990 | 8.55708 | 351 ft | 19 kts | 249° |
| 2026-05-01 14:59 | 50.03940 | 8.55493 | 349 ft | 23 kts | 250° |
| 2026-05-01 15:00 | 50.03830 | 8.55038 | 351 ft | 22 kts | 249° |
| 2026-05-01 15:00 | 50.03778 | 8.54819 | 349 ft | 21 kts | 250° |
| 2026-05-01 15:00 | 50.03728 | 8.54607 | 349 ft | 21 kts | 249° |
| 2026-05-01 15:01 | 50.03678 | 8.54399 | 336 ft | 20 kts | 250° |
| 2026-05-01 15:01 | 50.03630 | 8.54198 | 337 ft | 20 kts | 249° |
| 2026-05-01 15:01 | 50.03582 | 8.54003 | 337 ft | 19 kts | 249° |
| 2026-05-01 15:01 | 50.03537 | 8.53813 | 336 ft | 19 kts | 250° |
| 2026-05-01 15:02 | 50.03493 | 8.53628 | 338 ft | 18 kts | 250° |
| 2026-05-01 15:02 | 50.03479 | 8.53570 | 338 ft | 18 kts | 249° |
| 2026-05-01 15:02 | 50.03410 | 8.53279 | 337 ft | 17 kts | 250° |
| 2026-05-01 15:02 | 50.03369 | 8.53111 | 333 ft | 16 kts | 249° |
| 2026-05-01 15:03 | 50.03332 | 8.52953 | 330 ft | 15 kts | 249° |
| 2026-05-01 15:03 | 50.03295 | 8.52799 | 333 ft | 15 kts | 249° |
| 2026-05-01 15:03 | 50.03261 | 8.52650 | 331 ft | 14 kts | 251° |
| 2026-05-01 15:03 | 50.03194 | 8.52595 | 334 ft | 0 kts | 178° |
| 2026-05-01 15:04 | 50.03164 | 8.52595 | 334 ft | 25 kts | 179° |
| 2026-05-01 15:05 | 50.02729 | 8.52600 | 334 ft | 98 kts | 180° |
| 2026-05-01 15:05 | 50.01834 | 8.52611 | 332 ft | 156 kts | 176° |
| 2026-05-01 15:05 | 50.00656 | 8.52651 | 743 ft | 175 kts | 176° |
| 2026-05-01 15:05 | 49.99405 | 8.52613 | 1444 ft | 186 kts | 178° |
| 2026-05-01 15:06 | 49.98110 | 8.52563 | 2300 ft | 183 kts | 173° |
| 2026-05-01 15:06 | 49.96842 | 8.52640 | 3054 ft | 180 kts | 175° |
| 2026-05-01 15:06 | 49.95601 | 8.52650 | 3533 ft | 188 kts | 178° |
| 2026-05-01 15:06 | 49.94209 | 8.52602 | 3804 ft | 206 kts | 178° |
| 2026-05-01 15:07 | 49.92797 | 8.52543 | 3981 ft | 202 kts | 179° |
| 2026-05-01 15:07 | 49.91333 | 8.52506 | 4217 ft | 224 kts | 178° |
| 2026-05-01 15:07 | 49.89692 | 8.52490 | 4424 ft | 244 kts | 178° |
| 2026-05-01 15:07 | 49.88016 | 8.52472 | 4572 ft | 239 kts | 178° |
| 2026-05-01 15:08 | 49.86350 | 8.52468 | 4671 ft | 239 kts | 178° |
| 2026-05-01 15:08 | 49.84683 | 8.52471 | 4743 ft | 241 kts | 178° |
| 2026-05-01 15:08 | 49.82966 | 8.52477 | 4773 ft | 253 kts | 178° |
| 2026-05-01 15:08 | 49.81202 | 8.52487 | 4774 ft | 256 kts | 178° |
| 2026-05-01 15:09 | 49.79407 | 8.52494 | 4676 ft | 259 kts | 178° |
| 2026-05-01 15:09 | 49.77618 | 8.52507 | 4681 ft | 257 kts | 178° |
| 2026-05-01 15:09 | 49.75833 | 8.52525 | 4791 ft | 255 kts | 178° |
| 2026-05-01 15:09 | 49.74660 | 8.52535 | 4866 ft | 256 kts | 178° |
| 2026-05-01 15:10 | 49.72272 | 8.52674 | 5046 ft | 256 kts | 173° |
| 2026-05-01 15:10 | 49.69315 | 8.53127 | 5279 ft | 258 kts | 173° |
| 2026-05-01 15:10 | 49.67524 | 8.53406 | 5419 ft | 260 kts | 176° |
| 2026-05-01 15:11 | 49.65716 | 8.53211 | 5570 ft | 261 kts | 186° |
| 2026-05-01 15:11 | 49.62199 | 8.52432 | 6676 ft | 262 kts | 182° |
| 2026-05-01 15:11 | 49.60367 | 8.52650 | 7293 ft | 267 kts | 173° |
| 2026-05-01 15:12 | 49.58513 | 8.52792 | 7899 ft | 268 kts | 182° |
| 2026-05-01 15:12 | 49.54777 | 8.52384 | 9477 ft | 273 kts | 184° |
| 2026-05-01 15:12 | 49.52903 | 8.52150 | 10601 ft | 267 kts | 183° |
| 2026-05-01 15:13 | 49.46940 | 8.51319 | 12392 ft | 310 kts | 185° |
| 2026-05-01 15:14 | 49.42511 | 8.50551 | 13709 ft | 330 kts | 185° |
| 2026-05-01 15:14 | 49.40205 | 8.50150 | 14391 ft | 337 kts | 185° |
| 2026-05-01 15:14 | 49.35457 | 8.49339 | 15745 ft | 348 kts | 185° |
| 2026-05-01 15:15 | 49.30589 | 8.48515 | 17223 ft | 355 kts | 185° |
| 2026-05-01 15:15 | 49.25673 | 8.48050 | 18417 ft | 361 kts | 170° |
| 2026-05-01 15:16 | 49.21234 | 8.51613 | 17655 ft | 366 kts | 138° |
| 2026-05-01 15:16 | 49.17688 | 8.57074 | 16956 ft | 356 kts | 138° |
| 2026-05-01 15:17 | 49.13530 | 8.61118 | 16871 ft | 365 kts | 156° |
| 2026-05-01 15:18 | 49.06101 | 8.63016 | 17076 ft | 357 kts | 185° |
| 2026-05-01 15:18 | 49.03701 | 8.62277 | 16851 ft | 349 kts | 195° |
| 2026-05-01 15:19 | 48.96856 | 8.59361 | 15882 ft | 333 kts | 187° |
| 2026-05-01 15:19 | 48.92272 | 8.59209 | 15107 ft | 328 kts | 173° |
| 2026-05-01 15:19 | 48.90032 | 8.59781 | 14721 ft | 325 kts | 166° |
| 2026-05-01 15:20 | 48.85833 | 8.62158 | 13962 ft | 321 kts | 152° |
| 2026-05-01 15:20 | 48.83932 | 8.63927 | 13552 ft | 319 kts | 143° |
| 2026-05-01 15:20 | 48.82383 | 8.66328 | 12914 ft | 325 kts | 125° |
| 2026-05-01 15:21 | 48.81333 | 8.69429 | 12203 ft | 334 kts | 110° |
| 2026-05-01 15:21 | 48.80838 | 8.72843 | 11842 ft | 332 kts | 97° |
| 2026-05-01 15:21 | 48.80905 | 8.76332 | 11431 ft | 332 kts | 82° |
| 2026-05-01 15:21 | 48.81532 | 8.79689 | 11041 ft | 332 kts | 68° |
| 2026-05-01 15:22 | 48.84172 | 8.85403 | 10098 ft | 336 kts | 54° |
| 2026-05-01 15:22 | 48.85409 | 8.88398 | 9381 ft | 332 kts | 65° |
| 2026-05-01 15:22 | 48.86299 | 8.91557 | 8985 ft | 317 kts | 75° |
| 2026-05-01 15:23 | 48.86832 | 8.94719 | 8599 ft | 304 kts | 81° |
| 2026-05-01 15:23 | 48.87226 | 8.97889 | 7998 ft | 308 kts | 83° |
| 2026-05-01 15:23 | 48.87589 | 9.01109 | 7500 ft | 313 kts | 82° |
| 2026-05-01 15:23 | 48.87986 | 9.04428 | 7457 ft | 328 kts | 82° |
| 2026-05-01 15:24 | 48.88390 | 9.07911 | 7252 ft | 332 kts | 82° |
| 2026-05-01 15:24 | 48.88792 | 9.11268 | 7043 ft | 312 kts | 81° |
| 2026-05-01 15:24 | 48.89231 | 9.14451 | 6782 ft | 306 kts | 81° |
| 2026-05-01 15:24 | 48.89638 | 9.17592 | 6393 ft | 300 kts | 81° |
| 2026-05-01 15:25 | 48.89971 | 9.20686 | 6159 ft | 292 kts | 85° |
| 2026-05-01 15:25 | 48.90181 | 9.23645 | 6108 ft | 272 kts | 86° |
| 2026-05-01 15:25 | 48.90457 | 9.26457 | 5609 ft | 270 kts | 83° |
| 2026-05-01 15:25 | 48.90712 | 9.29308 | 4994 ft | 273 kts | 87° |
| 2026-05-01 15:26 | 48.90672 | 9.32181 | 4503 ft | 269 kts | 100° |
| 2026-05-01 15:26 | 48.90082 | 9.34807 | 4209 ft | 258 kts | 119° |
| 2026-05-01 15:26 | 48.88980 | 9.36850 | 3977 ft | 249 kts | 138° |
| 2026-05-01 15:26 | 48.87604 | 9.38245 | 4042 ft | 230 kts | 152° |
| 2026-05-01 15:27 | 48.86109 | 9.39137 | 3808 ft | 226 kts | 159° |
| 2026-05-01 15:27 | 48.84634 | 9.39778 | 3658 ft | 221 kts | 164° |
| 2026-05-01 15:27 | 48.83160 | 9.40253 | 3719 ft | 211 kts | 167° |
| 2026-05-01 15:28 | 48.80286 | 9.40776 | 3729 ft | 201 kts | 173° |
| 2026-05-01 15:28 | 48.78891 | 9.40834 | 3686 ft | 203 kts | 176° |
| 2026-05-01 15:28 | 48.77464 | 9.40901 | 3621 ft | 201 kts | 174° |
| 2026-05-01 15:29 | 48.74870 | 9.41152 | 3780 ft | 174 kts | 172° |
| 2026-05-01 15:29 | 48.73690 | 9.41247 | 3785 ft | 167 kts | 173° |
| 2026-05-01 15:29 | 48.71505 | 9.39550 | 3287 ft | 195 kts | 235° |
| 2026-05-01 15:30 | 48.71150 | 9.35830 | 2989 ft | 168 kts | 271° |
| 2026-05-01 15:31 | 48.70364 | 9.29473 | 1955 ft | 143 kts | 254° |
| 2026-05-01 15:31 | 48.69802 | 9.26510 | 1536 ft | 153 kts | 256° |
| 2026-05-01 15:32 | 48.69210 | 9.23375 | 1214 ft | 144 kts | 253° |
| 2026-05-01 15:32 | 48.68772 | 9.21082 | 1269 ft | 82 kts | 254° |
| 2026-05-01 15:33 | 48.68697 | 9.20226 | 1280 ft | 9 kts | 283° |
| 2026-05-01 15:34 | 48.68714 | 9.20122 | 1285 ft | 15 kts | 285° |